Solikamsk, Russia
Current Conditions -  °F | °C
As of 2:30 PM on Wednesday 22 Oct 2014 (Local Time) from USPP Reporting Station
Moderate Snow Moderate Snow  
Wind Chill:   Ceiling: 1100
Heat Index: 23°   Visibility: 1.1mi
Dew Point: 21°   Wind: 18mph
Humidity: 93%   Direction: 100°E
Pressure: 29.38"   Gusts: NA
Location:  59.64°N, 56.75°E
Report Text: USPP 220930Z 10008MPS 1800 FZRA SN OVC011 M05/M06 Q0995 REPL03491046 NOSIG RMK QFE736/0981 MOD ICE
Loading
Personal Weather Stations






























Interactive Weather Map
Tropical Storm Tracking
New forecast layout! Learn more

10-Day Weather Forecast

Advertisements
Track Severe Weather on mobile